Hauptseite
METAR-TAF:

METAR-TAF

Flughäfen :

Flughafen Castres-Mazamet

Castres, Frankreich

Breite: 43-33-25N, Länge: 2-17-21E, Höhe: 239 m

Beobachtung

Neuester Wetterbericht von vor 34 Minuten, um 11:00 UTC
Wind 5 kt aus West/Nordwest, variierte zwischen Süd/Südwest und Nord
Temperatur 25°C
Luftfeuchtigkeit 61%
Luftdruck 1023 hPa
Sichtweite 10 km oder mehr
Leicht bewölkt in der Höhe von 2600 ft

METAR: LFCK 191100Z AUTO 30005KT 210V010 9999 FEW026 25/17 Q1023 NOSIG

Zeit: 13:34 (11:34 UTC)

Prognose

Neuester Wetterbericht von vor 3 Stunden und 34 Minuten, um 08:00 UTC
Gültige Prognose vom 19 um 09 UTC bis 19 um 18 UTC
Wind 5 kt aus Nordwest
Sichtweite 10 km oder mehr
keine Wolken unter 1500 m und keine Kumulonimbus oder Gewitterwolken

TAF: LFCK 190800Z 1909/1918 31005KT CAVOK

Wetterbeobachtungen und Prognosen von mehr als 4000 Flughäfen (METAR und TAF Bericht).

Die verfügbaren Stationen werden durch gelbe und rote Markierungen auf der Karte dargestellt.

Führen Sie die Maus auf sie, um den Namen der Station zu sehen.

Darauf klicken, um die Beobachtung von Wetterbeobachtungen und Prognosen zu sehen.

Um die Karte zu ändern : klicken Sie auf den grünen Tasten mit einem schwarzen Kreuz Zum Vergrößern, auf den grünen Button mit einem Gedankenstrich zu verkleinern, oder auf die grünen Pfeile für benachbarte Karten.


METAR-TAF: